sensor_id;sensor_type;location;lat;lon;timestamp;pressure;altitude;pressure_sealevel;temperature;humidity
35694;BME280;21812;55.536;37.664;2024-01-30T00:02:11;100897.94;;;-0.63;76.15
35694;BME280;21812;55.536;37.664;2024-01-30T00:04:37;100908.75;;;-0.53;76.27
35694;BME280;21812;55.536;37.664;2024-01-30T00:07:03;100904.03;;;-0.48;75.85
35694;BME280;21812;55.536;37.664;2024-01-30T00:09:29;100858.66;;;-0.64;75.83
35694;BME280;21812;55.536;37.664;2024-01-30T00:11:55;100883.53;;;-0.41;75.70
35694;BME280;21812;55.536;37.664;2024-01-30T00:14:20;100888.22;;;-0.46;75.63
35694;BME280;21812;55.536;37.664;2024-01-30T00:16:46;100883.47;;;-0.40;75.65
35694;BME280;21812;55.536;37.664;2024-01-30T00:19:12;100890.59;;;-0.42;75.66
35694;BME280;21812;55.536;37.664;2024-01-30T00:21:37;100902.38;;;-0.49;75.53
35694;BME280;21812;55.536;37.664;2024-01-30T00:24:03;100910.25;;;-0.49;75.89
35694;BME280;21812;55.536;37.664;2024-01-30T00:26:29;100905.00;;;-0.49;76.12
35694;BME280;21812;55.536;37.664;2024-01-30T00:28:55;100895.16;;;-0.45;76.26
35694;BME280;21812;55.536;37.664;2024-01-30T00:31:21;100887.91;;;-0.56;75.75
35694;BME280;21812;55.536;37.664;2024-01-30T00:33:46;100888.13;;;-0.45;75.93
35694;BME280;21812;55.536;37.664;2024-01-30T00:36:12;100898.91;;;-0.35;75.85
35694;BME280;21812;55.536;37.664;2024-01-30T00:38:38;100883.25;;;-0.36;75.71
35694;BME280;21812;55.536;37.664;2024-01-30T00:41:04;100886.84;;;-0.37;75.55
35694;BME280;21812;55.536;37.664;2024-01-30T00:43:30;100869.81;;;-0.61;75.32
35694;BME280;21812;55.536;37.664;2024-01-30T00:45:57;100896.97;;;-0.31;75.55
35694;BME280;21812;55.536;37.664;2024-01-30T00:48:23;100902.59;;;-0.23;75.18
35694;BME280;21812;55.536;37.664;2024-01-30T00:50:49;100880.28;;;-0.30;75.38
35694;BME280;21812;55.536;37.664;2024-01-30T00:53:15;100887.97;;;-0.27;75.39
35694;BME280;21812;55.536;37.664;2024-01-30T00:55:40;100887.84;;;-0.40;75.13
35694;BME280;21812;55.536;37.664;2024-01-30T00:58:06;100886.28;;;-0.28;75.56
35694;BME280;21812;55.536;37.664;2024-01-30T01:00:32;100891.09;;;-0.21;75.45
35694;BME280;21812;55.536;37.664;2024-01-30T01:02:58;100873.53;;;-0.20;75.12
35694;BME280;21812;55.536;37.664;2024-01-30T01:05:24;100889.75;;;-0.13;74.90
35694;BME280;21812;55.536;37.664;2024-01-30T01:07:50;100882.16;;;-0.18;74.87
35694;BME280;21812;55.536;37.664;2024-01-30T01:10:17;100883.13;;;-0.19;75.27
35694;BME280;21812;55.536;37.664;2024-01-30T01:12:45;100875.31;;;-0.35;75.13
35694;BME280;21812;55.536;37.664;2024-01-30T01:15:11;100884.47;;;-0.42;75.50
35694;BME280;21812;55.536;37.664;2024-01-30T01:17:40;100881.75;;;-0.41;76.00
35694;BME280;21812;55.536;37.664;2024-01-30T01:20:07;100881.75;;;-0.41;75.99
35694;BME280;21812;55.536;37.664;2024-01-30T01:22:34;100873.34;;;-0.46;75.95
35694;BME280;21812;55.536;37.664;2024-01-30T01:25:00;100884.28;;;-0.39;76.32
35694;BME280;21812;55.536;37.664;2024-01-30T01:27:26;100872.59;;;-0.33;76.26
35694;BME280;21812;55.536;37.664;2024-01-30T01:29:52;100889.47;;;-0.23;75.80
35694;BME280;21812;55.536;37.664;2024-01-30T01:32:19;100916.22;;;-0.16;75.70
35694;BME280;21812;55.536;37.664;2024-01-30T01:34:45;100884.63;;;-0.15;75.54
35694;BME280;21812;55.536;37.664;2024-01-30T01:37:11;100883.13;;;-0.05;75.49
35694;BME280;21812;55.536;37.664;2024-01-30T01:39:37;100879.25;;;-0.13;75.13
35694;BME280;21812;55.536;37.664;2024-01-30T01:42:03;100882.75;;;-0.13;75.28
35694;BME280;21812;55.536;37.664;2024-01-30T01:44:29;100887.25;;;-0.15;75.06
35694;BME280;21812;55.536;37.664;2024-01-30T01:46:57;100866.88;;;-0.26;75.39
35694;BME280;21812;55.536;37.664;2024-01-30T01:49:25;100834.34;;;-0.37;75.42
35694;BME280;21812;55.536;37.664;2024-01-30T01:51:51;100860.59;;;-0.23;75.75
35694;BME280;21812;55.536;37.664;2024-01-30T01:54:19;100867.63;;;-0.24;75.84
35694;BME280;21812;55.536;37.664;2024-01-30T01:56:45;100867.72;;;-0.25;75.75
35694;BME280;21812;55.536;37.664;2024-01-30T01:59:11;100866.97;;;-0.27;75.72
35694;BME280;21812;55.536;37.664;2024-01-30T02:01:37;100859.84;;;-0.25;76.50
35694;BME280;21812;55.536;37.664;2024-01-30T02:04:04;100863.03;;;-0.20;76.18
35694;BME280;21812;55.536;37.664;2024-01-30T02:06:31;100859.56;;;-0.21;75.88
35694;BME280;21812;55.536;37.664;2024-01-30T02:08:57;100863.78;;;-0.18;75.80
35694;BME280;21812;55.536;37.664;2024-01-30T02:11:23;100852.16;;;-0.14;75.88
35694;BME280;21812;55.536;37.664;2024-01-30T02:13:50;100852.72;;;-0.09;75.86
35694;BME280;21812;55.536;37.664;2024-01-30T02:16:17;100863.69;;;-0.02;75.72
35694;BME280;21812;55.536;37.664;2024-01-30T02:18:43;100828.72;;;-0.03;75.28
35694;BME280;21812;55.536;37.664;2024-01-30T02:21:32;100850.69;;;-0.04;75.30
35694;BME280;21812;55.536;37.664;2024-01-30T02:23:58;100828.53;;;-0.14;75.24
35694;BME280;21812;55.536;37.664;2024-01-30T02:26:25;100847.09;;;-0.03;75.42
35694;BME280;21812;55.536;37.664;2024-01-30T02:28:50;100843.16;;;-0.10;75.19
35694;BME280;21812;55.536;37.664;2024-01-30T02:31:16;100852.16;;;-0.14;75.46
35694;BME280;21812;55.536;37.664;2024-01-30T02:33:42;100847.94;;;-0.16;76.17
35694;BME280;21812;55.536;37.664;2024-01-30T02:36:08;100856.84;;;-0.05;75.76
35694;BME280;21812;55.536;37.664;2024-01-30T02:38:33;100855.81;;;-0.02;75.75
35694;BME280;21812;55.536;37.664;2024-01-30T02:40:59;100850.56;;;-0.02;75.83
35694;BME280;21812;55.536;37.664;2024-01-30T02:43:25;100865.09;;;0.04;75.87
35694;BME280;21812;55.536;37.664;2024-01-30T02:45:51;100836.41;;;0.01;75.85
35694;BME280;21812;55.536;37.664;2024-01-30T02:48:16;100857.59;;;0.12;75.30
35694;BME280;21812;55.536;37.664;2024-01-30T02:50:42;100846.81;;;0.02;75.53
35694;BME280;21812;55.536;37.664;2024-01-30T02:53:08;100853.00;;;0.01;75.91
35694;BME280;21812;55.536;37.664;2024-01-30T02:55:33;100843.16;;;0.05;75.92
35694;BME280;21812;55.536;37.664;2024-01-30T02:57:59;100857.97;;;0.06;75.81
35694;BME280;21812;55.536;37.664;2024-01-30T03:00:25;100820.47;;;-0.11;75.64
35694;BME280;21812;55.536;37.664;2024-01-30T03:02:51;100861.63;;;0.17;75.48
35694;BME280;21812;55.536;37.664;2024-01-30T03:05:16;100858.53;;;0.11;75.38
35694;BME280;21812;55.536;37.664;2024-01-30T03:07:42;100858.53;;;0.11;75.63
35694;BME280;21812;55.536;37.664;2024-01-30T03:10:08;100840.22;;;0.09;75.74
35694;BME280;21812;55.536;37.664;2024-01-30T03:12:33;100841.47;;;0.18;75.76
35694;BME280;21812;55.536;37.664;2024-01-30T03:14:59;100849.91;;;0.23;75.39
35694;BME280;21812;55.536;37.664;2024-01-30T03:17:25;100840.88;;;0.27;75.54
35694;BME280;21812;55.536;37.664;2024-01-30T03:19:51;100846.13;;;0.27;75.24
35694;BME280;21812;55.536;37.664;2024-01-30T03:22:17;100844.44;;;0.26;75.02
35694;BME280;21812;55.536;37.664;2024-01-30T03:24:43;100854.19;;;0.24;75.27
35694;BME280;21812;55.536;37.664;2024-01-30T03:27:09;100854.13;;;0.26;75.44
35694;BME280;21812;55.536;37.664;2024-01-30T03:29:35;100868.47;;;0.20;75.38
35694;BME280;21812;55.536;37.664;2024-01-30T03:32:01;100870.34;;;0.18;75.70
35694;BME280;21812;55.536;37.664;2024-01-30T03:34:26;100834.44;;;0.04;75.81
35694;BME280;21812;55.536;37.664;2024-01-30T03:36:52;100859.09;;;0.16;75.95
35694;BME280;21812;55.536;37.664;2024-01-30T03:39:18;100866.69;;;0.21;76.04
35694;BME280;21812;55.536;37.664;2024-01-30T03:41:43;100869.22;;;0.22;75.96
35694;BME280;21812;55.536;37.664;2024-01-30T03:44:10;100854.97;;;0.12;76.01
35694;BME280;21812;55.536;37.664;2024-01-30T03:46:36;100869.13;;;0.24;76.15
35694;BME280;21812;55.536;37.664;2024-01-30T03:49:02;100860.84;;;0.30;76.07
35694;BME280;21812;55.536;37.664;2024-01-30T03:51:29;100863.00;;;0.37;76.01
35694;BME280;21812;55.536;37.664;2024-01-30T03:53:55;100858.41;;;0.41;75.52
35694;BME280;21812;55.536;37.664;2024-01-30T03:56:21;100853.63;;;0.48;76.22
35694;BME280;21812;55.536;37.664;2024-01-30T03:58:47;100844.38;;;0.55;75.92
35694;BME280;21812;55.536;37.664;2024-01-30T04:01:14;100851.56;;;0.93;75.87
35694;BME280;21812;55.536;37.664;2024-01-30T04:03:41;100857.84;;;1.17;76.62
35694;BME280;21812;55.536;37.664;2024-01-30T04:06:07;100872.34;;;1.10;74.37
35694;BME280;21812;55.536;37.664;2024-01-30T04:08:34;100828.91;;;0.77;74.44
35694;BME280;21812;55.536;37.664;2024-01-30T04:11:04;100861.94;;;1.09;75.10
35694;BME280;21812;55.536;37.664;2024-01-30T04:13:32;100852.78;;;1.02;73.33
35694;BME280;21812;55.536;37.664;2024-01-30T04:15:59;100821.19;;;0.62;73.57
35694;BME280;21812;55.536;37.664;2024-01-30T04:18:27;100870.25;;;0.75;74.49
35694;BME280;21812;55.536;37.664;2024-01-30T04:20:53;100832.84;;;0.57;75.68
35694;BME280;21812;55.536;37.664;2024-01-30T04:23:18;100869.31;;;0.76;74.68
35694;BME280;21812;55.536;37.664;2024-01-30T04:25:44;100872.09;;;0.88;74.96
35694;BME280;21812;55.536;37.664;2024-01-30T04:28:10;100866.84;;;0.88;75.93
35694;BME280;21812;55.536;37.664;2024-01-30T04:30:37;100863.34;;;0.87;75.18
35694;BME280;21812;55.536;37.664;2024-01-30T04:33:03;100855.19;;;0.77;74.42
35694;BME280;21812;55.536;37.664;2024-01-30T04:35:29;100873.34;;;0.95;75.44
35694;BME280;21812;55.536;37.664;2024-01-30T04:37:55;100863.88;;;1.32;75.74
35694;BME280;21812;55.536;37.664;2024-01-30T04:40:21;100865.34;;;1.24;74.35
35694;BME280;21812;55.536;37.664;2024-01-30T04:42:47;100854.94;;;1.35;75.08
35694;BME280;21812;55.536;37.664;2024-01-30T04:45:12;100855.41;;;1.54;73.55
35694;BME280;21812;55.536;37.664;2024-01-30T04:47:38;100829.91;;;1.42;75.28
35694;BME280;21812;55.536;37.664;2024-01-30T04:50:06;100858.34;;;1.63;73.84
35694;BME280;21812;55.536;37.664;2024-01-30T04:52:33;100851.38;;;1.36;74.01
35694;BME280;21812;55.536;37.664;2024-01-30T04:54:59;100859.59;;;1.31;73.85
35694;BME280;21812;55.536;37.664;2024-01-30T04:57:25;100827.63;;;1.10;74.19
35694;BME280;21812;55.536;37.664;2024-01-30T04:59:51;100859.81;;;1.41;75.97
35694;BME280;21812;55.536;37.664;2024-01-30T05:02:16;100857.06;;;1.30;74.37
35694;BME280;21812;55.536;37.664;2024-01-30T05:04:42;100863.75;;;1.21;73.71
35694;BME280;21812;55.536;37.664;2024-01-30T05:07:08;100866.91;;;1.13;74.84
35694;BME280;21812;55.536;37.664;2024-01-30T05:09:33;100877.50;;;0.99;74.66
35694;BME280;21812;55.536;37.664;2024-01-30T05:11:59;100870.84;;;0.93;77.00
35694;BME280;21812;55.536;37.664;2024-01-30T05:14:25;100877.13;;;0.91;75.63
35694;BME280;21812;55.536;37.664;2024-01-30T05:16:50;100870.88;;;1.06;75.56
35694;BME280;21812;55.536;37.664;2024-01-30T05:19:16;100867.72;;;1.01;74.96
35694;BME280;21812;55.536;37.664;2024-01-30T05:21:42;100873.44;;;1.21;75.29
35694;BME280;21812;55.536;37.664;2024-01-30T05:24:08;100874.44;;;1.45;74.17
35694;BME280;21812;55.536;37.664;2024-01-30T05:26:36;100865.34;;;1.24;73.78
35694;BME280;21812;55.536;37.664;2024-01-30T05:29:02;100865.47;;;1.35;74.71
35694;BME280;21812;55.536;37.664;2024-01-30T05:31:27;100849.81;;;1.33;73.89
35694;BME280;21812;55.536;37.664;2024-01-30T05:33:54;100885.69;;;1.34;73.21
35694;BME280;21812;55.536;37.664;2024-01-30T05:36:20;100895.81;;;1.53;74.05
35694;BME280;21812;55.536;37.664;2024-01-30T05:38:47;100886.31;;;1.38;73.44
35694;BME280;21812;55.536;37.664;2024-01-30T05:41:13;100872.63;;;1.33;74.37
35694;BME280;21812;55.536;37.664;2024-01-30T05:43:38;100873.84;;;1.54;75.96
35694;BME280;21812;55.536;37.664;2024-01-30T05:46:04;100868.97;;;1.48;73.75
35694;BME280;21812;55.536;37.664;2024-01-30T05:48:30;100871.81;;;1.45;73.85
35694;BME280;21812;55.536;37.664;2024-01-30T05:50:56;100871.81;;;1.45;75.03
35694;BME280;21812;55.536;37.664;2024-01-30T05:53:22;100868.56;;;1.54;74.16
35694;BME280;21812;55.536;37.664;2024-01-30T05:55:47;100866.31;;;1.35;73.55
35694;BME280;21812;55.536;37.664;2024-01-30T05:58:13;100876.28;;;1.17;73.98
35694;BME280;21812;55.536;37.664;2024-01-30T06:00:39;100878.03;;;1.04;74.58
35694;BME280;21812;55.536;37.664;2024-01-30T06:03:04;100893.38;;;0.97;75.06
35694;BME280;21812;55.536;37.664;2024-01-30T06:05:30;100883.44;;;0.88;75.41
35694;BME280;21812;55.536;37.664;2024-01-30T06:07:56;100892.38;;;0.86;75.56
35694;BME280;21812;55.536;37.664;2024-01-30T06:10:21;100897.84;;;0.83;75.84
35694;BME280;21812;55.536;37.664;2024-01-30T06:12:47;100898.09;;;0.78;76.19
35694;BME280;21812;55.536;37.664;2024-01-30T06:15:13;100890.53;;;0.73;76.50
35694;BME280;21812;55.536;37.664;2024-01-30T06:17:39;100895.03;;;0.71;76.55
35694;BME280;21812;55.536;37.664;2024-01-30T06:20:06;100912.66;;;0.84;76.58
35694;BME280;21812;55.536;37.664;2024-01-30T06:22:32;100906.88;;;0.78;76.45
35694;BME280;21812;55.536;37.664;2024-01-30T06:24:58;100910.16;;;0.82;76.74
35694;BME280;21812;55.536;37.664;2024-01-30T06:27:23;100897.44;;;0.89;76.75
35694;BME280;21812;55.536;37.664;2024-01-30T06:29:49;100901.94;;;0.87;76.41
35694;BME280;21812;55.536;37.664;2024-01-30T06:32:15;100907.22;;;0.87;76.50
35694;BME280;21812;55.536;37.664;2024-01-30T06:34:41;100908.69;;;0.91;76.69
35694;BME280;21812;55.536;37.664;2024-01-30T06:37:09;100907.13;;;0.88;76.94
35694;BME280;21812;55.536;37.664;2024-01-30T06:39:34;100907.13;;;0.88;76.94
35694;BME280;21812;55.536;37.664;2024-01-30T06:42:00;100913.78;;;0.94;76.97
35694;BME280;21812;55.536;37.664;2024-01-30T06:44:26;100920.50;;;0.98;76.80
35694;BME280;21812;55.536;37.664;2024-01-30T06:46:51;100915.25;;;0.98;76.62
35694;BME280;21812;55.536;37.664;2024-01-30T06:49:17;100915.41;;;1.09;77.12
35694;BME280;21812;55.536;37.664;2024-01-30T06:51:43;100910.34;;;1.46;78.12
35694;BME280;21812;55.536;37.664;2024-01-30T06:54:09;100902.59;;;1.96;79.88
35694;BME280;21812;55.536;37.664;2024-01-30T06:56:34;100907.41;;;2.41;76.31
35694;BME280;21812;55.536;37.664;2024-01-30T06:59:01;100910.28;;;2.74;74.55
35694;BME280;21812;55.536;37.664;2024-01-30T07:01:29;100910.13;;;3.13;72.48
35694;BME280;21812;55.536;37.664;2024-01-30T07:03:56;100912.94;;;2.99;70.28
35694;BME280;21812;55.536;37.664;2024-01-30T07:06:21;100915.22;;;2.79;72.04
35694;BME280;21812;55.536;37.664;2024-01-30T07:08:49;100869.53;;;2.42;71.59
35694;BME280;21812;55.536;37.664;2024-01-30T07:11:19;100917.06;;;2.53;71.35
35694;BME280;21812;55.536;37.664;2024-01-30T07:13:45;100928.75;;;2.25;71.55
35694;BME280;21812;55.536;37.664;2024-01-30T07:16:12;100896.19;;;1.87;72.17
35694;BME280;21812;55.536;37.664;2024-01-30T07:18:38;100915.03;;;1.94;72.50
35694;BME280;21812;55.536;37.664;2024-01-30T07:21:04;100925.78;;;1.78;73.17
35694;BME280;21812;55.536;37.664;2024-01-30T07:23:30;100929.56;;;1.74;73.63
35694;BME280;21812;55.536;37.664;2024-01-30T07:25:55;100925.56;;;1.68;74.07
35694;BME280;21812;55.536;37.664;2024-01-30T07:28:21;100936.94;;;1.69;74.11
35694;BME280;21812;55.536;37.664;2024-01-30T07:30:47;100930.00;;;1.68;74.28
35694;BME280;21812;55.536;37.664;2024-01-30T07:33:14;100922.28;;;1.65;74.25
35694;BME280;21812;55.536;37.664;2024-01-30T07:35:39;100920.81;;;1.61;74.14
35694;BME280;21812;55.536;37.664;2024-01-30T07:38:05;100925.22;;;1.73;74.37
35694;BME280;21812;55.536;37.664;2024-01-30T07:40:31;100933.88;;;1.75;73.81
35694;BME280;21812;55.536;37.664;2024-01-30T07:42:58;100926.25;;;1.58;74.21
35694;BME280;21812;55.536;37.664;2024-01-30T07:45:24;100935.44;;;1.65;74.57
35694;BME280;21812;55.536;37.664;2024-01-30T07:47:52;100937.47;;;1.74;74.55
35694;BME280;21812;55.536;37.664;2024-01-30T07:50:18;100936.50;;;1.75;73.88
35694;BME280;21812;55.536;37.664;2024-01-30T07:52:44;100925.00;;;1.63;74.05
35694;BME280;21812;55.536;37.664;2024-01-30T07:56:01;100925.13;;;1.74;74.77
35694;BME280;21812;55.536;37.664;2024-01-30T07:58:28;100939.97;;;1.63;74.28
35694;BME280;21812;55.536;37.664;2024-01-30T08:00:54;100940.53;;;1.68;74.49
35694;BME280;21812;55.536;37.664;2024-01-30T08:03:22;100938.28;;;1.62;74.35
35694;BME280;21812;55.536;37.664;2024-01-30T08:05:48;100944.63;;;1.72;74.42
35694;BME280;21812;55.536;37.664;2024-01-30T08:08:13;100946.84;;;1.78;74.34
35694;BME280;21812;55.536;37.664;2024-01-30T08:10:39;100940.41;;;1.82;74.10
35694;BME280;21812;55.536;37.664;2024-01-30T08:13:05;100933.47;;;1.81;74.21
35694;BME280;21812;55.536;37.664;2024-01-30T08:15:30;100939.47;;;1.83;73.91
35694;BME280;21812;55.536;37.664;2024-01-30T08:17:56;100940.13;;;1.87;74.15
35694;BME280;21812;55.536;37.664;2024-01-30T08:20:24;100938.22;;;1.89;73.93
35694;BME280;21812;55.536;37.664;2024-01-30T08:22:51;100940.97;;;1.87;73.90
35694;BME280;21812;55.536;37.664;2024-01-30T08:25:17;100934.44;;;1.93;73.88
35694;BME280;21812;55.536;37.664;2024-01-30T08:27:44;100921.03;;;1.96;73.51
35694;BME280;21812;55.536;37.664;2024-01-30T08:30:10;100933.91;;;2.01;73.76
35694;BME280;21812;55.536;37.664;2024-01-30T08:32:36;100930.22;;;2.03;73.48
35694;BME280;21812;55.536;37.664;2024-01-30T08:35:02;100931.81;;;2.06;73.54
35694;BME280;21812;55.536;37.664;2024-01-30T08:37:31;100937.28;;;2.15;73.25
35694;BME280;21812;55.536;37.664;2024-01-30T08:39:57;100926.94;;;2.12;72.89
35694;BME280;21812;55.536;37.664;2024-01-30T08:42:22;100925.47;;;2.21;73.08
35694;BME280;21812;55.536;37.664;2024-01-30T08:44:49;100907.75;;;2.10;72.56
35694;BME280;21812;55.536;37.664;2024-01-30T08:47:17;100902.09;;;2.04;73.30
35694;BME280;21812;55.536;37.664;2024-01-30T08:49:44;100917.97;;;2.15;73.55
35694;BME280;21812;55.536;37.664;2024-01-30T08:52:30;100921.13;;;2.20;73.03
35694;BME280;21812;55.536;37.664;2024-01-30T08:54:56;100921.78;;;2.11;73.16
35694;BME280;21812;55.536;37.664;2024-01-30T08:57:22;100924.94;;;2.16;73.39
35694;BME280;21812;55.536;37.664;2024-01-30T08:59:48;100921.38;;;2.17;73.33
35694;BME280;21812;55.536;37.664;2024-01-30T09:02:14;100915.47;;;2.13;73.09
35694;BME280;21812;55.536;37.664;2024-01-30T09:04:41;100921.56;;;2.27;73.33
35694;BME280;21812;55.536;37.664;2024-01-30T09:07:09;100855.69;;;1.88;72.95
35694;BME280;21812;55.536;37.664;2024-01-30T09:09:34;100916.50;;;2.24;72.83
35694;BME280;21812;55.536;37.664;2024-01-30T09:12:00;100903.41;;;2.22;72.53
35694;BME280;21812;55.536;37.664;2024-01-30T09:14:32;100903.00;;;2.28;72.63
35694;BME280;21812;55.536;37.664;2024-01-30T09:16:58;100925.13;;;2.39;72.41
35694;BME280;21812;55.536;37.664;2024-01-30T09:19:23;100913.53;;;2.28;72.36
35694;BME280;21812;55.536;37.664;2024-01-30T09:21:49;100925.56;;;2.32;72.69
35694;BME280;21812;55.536;37.664;2024-01-30T09:24:15;100930.22;;;2.29;72.85
35694;BME280;21812;55.536;37.664;2024-01-30T09:26:40;100918.06;;;2.26;72.44
35694;BME280;21812;55.536;37.664;2024-01-30T09:29:06;100916.94;;;2.30;72.38
35694;BME280;21812;55.536;37.664;2024-01-30T09:31:32;100918.59;;;2.31;72.56
35694;BME280;21812;55.536;37.664;2024-01-30T09:33:57;100930.31;;;2.27;72.59
35694;BME280;21812;55.536;37.664;2024-01-30T09:36:23;100935.38;;;2.30;72.75
35694;BME280;21812;55.536;37.664;2024-01-30T09:38:49;100924.59;;;2.33;72.68
35694;BME280;21812;55.536;37.664;2024-01-30T09:41:15;100924.41;;;2.37;72.38
35694;BME280;21812;55.536;37.664;2024-01-30T09:43:41;100928.78;;;2.49;72.57
35694;BME280;21812;55.536;37.664;2024-01-30T09:46:14;100913.06;;;2.47;72.31
35694;BME280;21812;55.536;37.664;2024-01-30T09:48:42;100925.72;;;2.55;71.91
35694;BME280;21812;55.536;37.664;2024-01-30T09:51:09;100880.03;;;2.30;71.98
35694;BME280;21812;55.536;37.664;2024-01-30T09:53:36;100922.78;;;2.60;71.91
35694;BME280;21812;55.536;37.664;2024-01-30T09:56:03;100915.16;;;2.55;71.84
35694;BME280;21812;55.536;37.664;2024-01-30T09:58:29;100924.88;;;2.54;71.57
35694;BME280;21812;55.536;37.664;2024-01-30T10:00:55;100907.50;;;2.52;72.14
35694;BME280;21812;55.536;37.664;2024-01-30T10:03:21;100902.00;;;2.55;72.29
35694;BME280;21812;55.536;37.664;2024-01-30T10:05:51;100913.50;;;2.54;71.94
35694;BME280;21812;55.536;37.664;2024-01-30T10:08:20;100864.31;;;2.16;71.97
35694;BME280;21812;55.536;37.664;2024-01-30T10:10:49;100914.25;;;2.43;72.10
35694;BME280;21812;55.536;37.664;2024-01-30T10:13:16;100911.72;;;2.42;72.26
35694;BME280;21812;55.536;37.664;2024-01-30T10:15:42;100914.97;;;2.45;72.05
35694;BME280;21812;55.536;37.664;2024-01-30T10:18:11;100918.25;;;2.49;72.14
35694;BME280;21812;55.536;37.664;2024-01-30T10:20:37;100904.44;;;2.45;72.38
35694;BME280;21812;55.536;37.664;2024-01-30T10:23:03;100900.41;;;2.52;72.17
35694;BME280;21812;55.536;37.664;2024-01-30T10:25:33;100923.41;;;2.63;72.02
35694;BME280;21812;55.536;37.664;2024-01-30T10:27:59;100916.13;;;2.67;71.89
35694;BME280;21812;55.536;37.664;2024-01-30T10:30:27;100919.78;;;2.64;71.50
35694;BME280;21812;55.536;37.664;2024-01-30T10:32:53;100895.56;;;2.59;71.81
35694;BME280;21812;55.536;37.664;2024-01-30T10:35:19;100914.34;;;2.54;71.58
35694;BME280;21812;55.536;37.664;2024-01-30T10:37:47;100896.94;;;2.52;72.06
35694;BME280;21812;55.536;37.664;2024-01-30T10:40:14;100884.69;;;2.51;71.87
35694;BME280;21812;55.536;37.664;2024-01-30T10:42:45;100902.06;;;2.66;71.79
35694;BME280;21812;55.536;37.664;2024-01-30T10:45:14;100919.13;;;2.73;71.94
35694;BME280;21812;55.536;37.664;2024-01-30T10:47:54;100910.34;;;2.86;71.68
35694;BME280;21812;55.536;37.664;2024-01-30T10:50:24;100880.47;;;2.61;70.87
35694;BME280;21812;55.536;37.664;2024-01-30T10:52:51;100917.22;;;2.76;71.29
35694;BME280;21812;55.536;37.664;2024-01-30T10:55:18;100916.78;;;2.82;71.66
35694;BME280;21812;55.536;37.664;2024-01-30T10:57:44;100916.56;;;2.85;71.31
35694;BME280;21812;55.536;37.664;2024-01-30T11:00:14;100904.78;;;2.78;70.90
35694;BME280;21812;55.536;37.664;2024-01-30T11:02:44;100897.66;;;2.67;71.27
35694;BME280;21812;55.536;37.664;2024-01-30T11:05:10;100912.13;;;2.85;71.31
35694;BME280;21812;55.536;37.664;2024-01-30T11:07:39;100885.19;;;2.69;71.62
35694;BME280;21812;55.536;37.664;2024-01-30T11:10:05;100922.44;;;3.01;71.30
35694;BME280;21812;55.536;37.664;2024-01-30T11:12:38;100923.06;;;3.05;70.82
35694;BME280;21812;55.536;37.664;2024-01-30T11:15:12;100875.03;;;2.76;70.54
35694;BME280;21812;55.536;37.664;2024-01-30T11:17:50;100925.56;;;3.06;70.43
35694;BME280;21812;55.536;37.664;2024-01-30T11:22:51;100899.84;;;2.73;70.69
35694;BME280;21812;55.536;37.664;2024-01-30T11:25:19;100926.50;;;2.81;71.39
35694;BME280;21812;55.536;37.664;2024-01-30T11:27:46;100929.03;;;2.83;71.17
35694;BME280;21812;55.536;37.664;2024-01-30T11:30:24;100924.69;;;2.82;71.29
35694;BME280;21812;55.536;37.664;2024-01-30T11:35:25;100911.16;;;2.62;71.67
35694;BME280;21812;55.536;37.664;2024-01-30T11:37:52;100918.63;;;2.68;71.43
35694;BME280;21812;55.536;37.664;2024-01-30T11:40:19;100923.69;;;2.71;71.41
35694;BME280;21812;55.536;37.664;2024-01-30T11:42:45;100919.69;;;2.66;71.71
35694;BME280;21812;55.536;37.664;2024-01-30T11:45:12;100908.75;;;2.59;71.56
35694;BME280;21812;55.536;37.664;2024-01-30T11:47:38;100913.88;;;2.73;71.93
35694;BME280;21812;55.536;37.664;2024-01-30T11:50:04;100903.41;;;2.72;71.56
35694;BME280;21812;55.536;37.664;2024-01-30T11:52:34;100918.47;;;2.83;71.79
35694;BME280;21812;55.536;37.664;2024-01-30T11:55:00;100928.59;;;2.89;71.39
35694;BME280;21812;55.536;37.664;2024-01-30T11:57:27;100915.63;;;2.86;71.19
35694;BME280;21812;55.536;37.664;2024-01-30T11:59:52;100931.75;;;2.94;71.21
35694;BME280;21812;55.536;37.664;2024-01-30T12:02:18;100924.78;;;2.93;70.85
35694;BME280;21812;55.536;37.664;2024-01-30T12:04:44;100931.94;;;2.91;70.95
35694;BME280;21812;55.536;37.664;2024-01-30T12:07:10;100937.38;;;2.89;71.03
35694;BME280;21812;55.536;37.664;2024-01-30T12:09:36;100941.06;;;2.87;71.11
35694;BME280;21812;55.536;37.664;2024-01-30T12:12:02;100939.88;;;2.91;70.95
35694;BME280;21812;55.536;37.664;2024-01-30T12:14:28;100950.88;;;2.85;70.95
35694;BME280;21812;55.536;37.664;2024-01-30T12:16:54;100958.16;;;2.81;71.23
35694;BME280;21812;55.536;37.664;2024-01-30T12:19:26;100907.22;;;2.44;71.70
35694;BME280;21812;55.536;37.664;2024-01-30T12:21:56;100952.81;;;2.70;71.71
35694;BME280;21812;55.536;37.664;2024-01-30T12:24:27;100956.19;;;2.72;71.60
35694;BME280;21812;55.536;37.664;2024-01-30T12:26:59;100957.25;;;2.69;71.90
35694;BME280;21812;55.536;37.664;2024-01-30T12:29:25;100961.78;;;2.67;72.34
35694;BME280;21812;55.536;37.664;2024-01-30T12:31:54;100958.81;;;2.72;72.16
35694;BME280;21812;55.536;37.664;2024-01-30T12:34:20;100952.06;;;2.81;71.93
35694;BME280;21812;55.536;37.664;2024-01-30T12:36:47;100957.66;;;2.76;71.86
35694;BME280;21812;55.536;37.664;2024-01-30T12:39:14;100960.41;;;2.74;72.32
35694;BME280;21812;55.536;37.664;2024-01-30T12:41:40;100951.69;;;2.61;72.33
35694;BME280;21812;55.536;37.664;2024-01-30T12:44:06;100962.00;;;2.64;72.39
35694;BME280;21812;55.536;37.664;2024-01-30T12:46:34;100970.03;;;2.63;72.45
35694;BME280;21812;55.536;37.664;2024-01-30T12:49:00;100962.44;;;2.58;72.77
35694;BME280;21812;55.536;37.664;2024-01-30T12:51:26;100964.13;;;2.59;72.70